createdAt,value
2019-03-27T00:02:03.013Z,93.74
2019-03-27T00:04:37.617Z,94.01
2019-03-27T00:07:12.275Z,94.28
2019-03-27T00:09:49.627Z,94.35
2019-03-27T00:12:24.210Z,94.25
2019-03-27T00:15:11.592Z,94.08
2019-03-27T00:17:35.030Z,94.06
2019-03-27T00:20:11.073Z,94.07
2019-03-27T00:22:47.047Z,94.20
2019-03-27T00:25:21.766Z,94.43
2019-03-27T00:27:56.698Z,94.71
2019-03-27T00:30:31.324Z,95.04
2019-03-27T00:33:05.952Z,95.14
2019-03-27T00:35:40.445Z,95.28
2019-03-27T00:38:15.008Z,95.28
2019-03-27T00:40:51.169Z,95.57
2019-03-27T00:43:27.956Z,95.73
2019-03-27T00:46:02.733Z,95.86
2019-03-27T00:48:37.232Z,96.05
2019-03-27T00:51:13.661Z,96.20
2019-03-27T00:53:49.624Z,96.51
2019-03-27T00:56:24.369Z,96.46
2019-03-27T00:58:58.941Z,96.47
2019-03-27T01:01:33.546Z,96.48
2019-03-27T01:04:08.130Z,96.28
2019-03-27T01:06:42.547Z,96.11
2019-03-27T01:09:17.209Z,95.52
2019-03-27T01:11:54.560Z,95.25
2019-03-27T01:14:30.115Z,94.77
2019-03-27T01:17:04.737Z,94.52
2019-03-27T01:19:39.281Z,94.58
2019-03-27T01:22:13.886Z,94.71
2019-03-27T01:24:48.493Z,95.03
2019-03-27T01:27:22.986Z,95.52
2019-03-27T01:29:57.633Z,95.89
2019-03-27T01:32:32.394Z,96.25
2019-03-27T01:35:07.223Z,96.55
2019-03-27T01:37:43.079Z,96.67
2019-03-27T01:40:18.027Z,96.55
2019-03-27T01:42:54.135Z,96.27
2019-03-27T01:45:28.699Z,96.36
2019-03-27T01:48:03.221Z,96.06
2019-03-27T01:50:38.161Z,96.04
2019-03-27T01:53:14.461Z,95.83
2019-03-27T01:55:48.871Z,95.81
2019-03-27T01:58:24.454Z,95.57
2019-03-27T02:00:59.320Z,95.23
2019-03-27T02:03:35.331Z,94.80
2019-03-27T02:06:09.803Z,94.45
2019-03-27T02:08:44.218Z,94.43
2019-03-27T02:11:18.849Z,94.38
2019-03-27T02:13:56.138Z,94.41
2019-03-27T02:16:30.763Z,94.71
2019-03-27T02:19:05.202Z,94.80
2019-03-27T02:21:42.559Z,94.56
2019-03-27T02:24:17.387Z,94.55
2019-03-27T02:26:52.387Z,94.53
2019-03-27T02:29:27.027Z,94.41
2019-03-27T02:32:02.920Z,94.44
2019-03-27T02:34:37.550Z,94.39
2019-03-27T02:37:12.490Z,94.62
2019-03-27T02:39:48.649Z,94.64
2019-03-27T02:42:23.377Z,94.54
2019-03-27T02:44:58.205Z,94.43
2019-03-27T02:47:33.247Z,94.06
2019-03-27T02:50:08.713Z,93.96
2019-03-27T02:52:46.282Z,93.78
2019-03-27T02:55:20.826Z,94.00
2019-03-27T02:57:55.406Z,93.82
2019-03-27T03:00:30.068Z,93.39
2019-03-27T03:03:04.891Z,93.06
2019-03-27T03:05:39.409Z,93.49
2019-03-27T03:08:14.102Z,93.85
2019-03-27T03:10:48.681Z,94.16
2019-03-27T03:13:23.295Z,94.18
2019-03-27T03:15:59.951Z,94.26
2019-03-27T03:18:34.655Z,94.32
2019-03-27T03:21:09.284Z,93.80
2019-03-27T03:23:43.887Z,93.30
2019-03-27T03:26:18.402Z,93.60
2019-03-27T03:28:54.843Z,93.40
2019-03-27T03:31:31.311Z,93.25
2019-03-27T03:34:05.818Z,93.29
2019-03-27T03:36:40.824Z,93.06
2019-03-27T03:39:16.278Z,92.99
2019-03-27T03:41:50.762Z,92.90
2019-03-27T03:44:25.785Z,92.84
2019-03-27T03:47:00.770Z,92.77
2019-03-27T03:49:35.399Z,93.02
2019-03-27T03:52:10.165Z,93.03
2019-03-27T03:54:45.097Z,93.06
2019-03-27T03:57:20.221Z,92.99
2019-03-27T03:59:57.989Z,92.77
2019-03-27T04:02:37.290Z,92.86
2019-03-27T04:05:15.881Z,92.77
2019-03-27T04:07:50.567Z,93.17
2019-03-27T04:10:25.228Z,93.05
2019-03-27T04:13:00.078Z,93.08
2019-03-27T04:15:34.679Z,93.58
2019-03-27T04:18:09.550Z,93.70
2019-03-27T04:20:45.857Z,93.61
2019-03-27T04:23:21.542Z,93.45
2019-03-27T04:26:09.092Z,93.83
2019-03-27T04:28:32.438Z,93.71
2019-03-27T04:31:07.140Z,93.39
2019-03-27T04:33:41.656Z,93.72
2019-03-27T04:36:16.423Z,93.66
2019-03-27T04:38:51.077Z,93.86
2019-03-27T04:41:25.977Z,93.59
2019-03-27T04:44:00.607Z,93.69
2019-03-27T04:46:35.134Z,93.68
2019-03-27T04:49:09.771Z,93.71
2019-03-27T04:51:46.221Z,94.29
2019-03-27T04:54:21.098Z,94.56
2019-03-27T04:56:55.813Z,94.33
2019-03-27T04:59:30.220Z,93.07
2019-03-27T05:02:06.608Z,92.89
2019-03-27T05:04:42.816Z,93.04
2019-03-27T05:07:19.306Z,93.15
2019-03-27T05:09:53.716Z,92.96
2019-03-27T05:12:28.454Z,93.34
2019-03-27T05:15:03.189Z,93.40
2019-03-27T05:17:45.858Z,92.90
2019-03-27T05:20:15.245Z,93.22
2019-03-27T05:22:50.585Z,93.54
2019-03-27T05:25:25.821Z,93.37
2019-03-27T05:28:00.416Z,93.59
2019-03-27T05:30:35.136Z,93.52
2019-03-27T05:33:09.670Z,93.64
2019-03-27T05:35:44.226Z,93.35
2019-03-27T05:38:18.838Z,92.65
2019-03-27T05:40:53.435Z,92.85
2019-03-27T05:43:30.330Z,92.64
2019-03-27T05:46:05.956Z,92.98
2019-03-27T05:48:40.922Z,92.33
2019-03-27T05:51:15.699Z,92.57
2019-03-27T05:53:50.153Z,92.37
2019-03-27T05:56:24.543Z,92.35
2019-03-27T05:58:59.010Z,91.73
2019-03-27T06:01:33.451Z,91.19
2019-03-27T06:04:08.030Z,91.46
2019-03-27T06:06:45.535Z,91.38
2019-03-27T06:09:20.171Z,91.84
2019-03-27T06:11:54.734Z,91.94
2019-03-27T06:14:29.217Z,91.72
2019-03-27T06:17:03.797Z,91.73
2019-03-27T06:19:38.356Z,91.24
2019-03-27T06:22:15.302Z,91.25
2019-03-27T06:24:49.947Z,90.75
2019-03-27T06:27:24.593Z,90.51
2019-03-27T06:29:59.107Z,90.69
2019-03-27T06:32:33.756Z,90.40
2019-03-27T06:35:09.861Z,90.91
2019-03-27T06:37:44.529Z,90.48
2019-03-27T06:40:22.209Z,89.61
2019-03-27T06:42:56.864Z,88.89
2019-03-27T06:45:31.383Z,88.60
2019-03-27T06:48:06.368Z,88.71
2019-03-27T06:50:41.341Z,88.81
2019-03-27T06:53:16.213Z,88.47
2019-03-27T06:55:50.712Z,88.21
2019-03-27T06:58:25.301Z,87.68
2019-03-27T07:00:59.845Z,87.67
2019-03-27T07:03:35.340Z,87.40
2019-03-27T07:06:11.260Z,87.18
2019-03-27T07:08:45.905Z,87.10
2019-03-27T07:11:22.252Z,86.96
2019-03-27T07:13:56.771Z,87.08
2019-03-27T07:16:31.511Z,86.83
2019-03-27T07:19:06.164Z,87.04
2019-03-27T07:21:40.616Z,86.90
2019-03-27T07:24:15.337Z,86.13
2019-03-27T07:26:49.968Z,85.37
2019-03-27T07:29:24.894Z,84.81
2019-03-27T07:31:59.440Z,84.13
2019-03-27T07:34:34.199Z,83.73
2019-03-27T07:37:10.474Z,84.33
2019-03-27T07:39:45.162Z,82.72
2019-03-27T07:42:21.290Z,82.06
2019-03-27T07:44:57.507Z,80.77
2019-03-27T07:47:32.308Z,79.39
2019-03-27T07:50:08.178Z,78.13
2019-03-27T07:52:42.611Z,76.93
2019-03-27T07:55:19.699Z,77.81
2019-03-27T07:57:54.945Z,78.23
2019-03-27T08:00:29.793Z,77.36
2019-03-27T08:03:04.419Z,77.40
2019-03-27T08:05:41.261Z,76.55
2019-03-27T08:08:15.908Z,76.07
2019-03-27T08:10:50.487Z,75.33
2019-03-27T08:13:25.056Z,75.66
2019-03-27T08:16:03.471Z,75.58
2019-03-27T08:18:38.202Z,73.82
2019-03-27T08:21:13.660Z,73.37
2019-03-27T08:23:48.567Z,73.21
2019-03-27T08:26:23.222Z,73.03
2019-03-27T08:28:58.280Z,74.43
2019-03-27T08:31:32.817Z,74.48
2019-03-27T08:34:07.327Z,74.34
2019-03-27T08:36:42.351Z,72.81
2019-03-27T08:39:18.282Z,73.10
2019-03-27T08:41:52.951Z,72.86
2019-03-27T08:44:27.593Z,73.70
2019-03-27T08:47:02.274Z,72.86
2019-03-27T08:49:37.436Z,70.72
2019-03-27T08:52:12.375Z,70.72
2019-03-27T08:54:47.063Z,70.28
2019-03-27T08:57:21.590Z,69.92
2019-03-27T08:59:57.908Z,69.14
2019-03-27T09:02:32.581Z,68.27
2019-03-27T09:05:07.890Z,67.33
2019-03-27T09:07:42.454Z,66.52
2019-03-27T09:10:18.985Z,66.58
2019-03-27T09:12:55.387Z,65.53
2019-03-27T09:15:30.106Z,65.26
2019-03-27T09:18:04.624Z,65.45
2019-03-27T09:20:41.113Z,66.56
2019-03-27T09:23:17.172Z,66.12
2019-03-27T09:25:51.775Z,66.58
2019-03-27T09:28:30.017Z,67.26
2019-03-27T09:31:04.524Z,67.03
2019-03-27T09:33:41.915Z,66.00
2019-03-27T09:36:16.478Z,64.51
2019-03-27T09:38:51.066Z,64.33
2019-03-27T09:41:25.802Z,63.89
2019-03-27T09:44:02.177Z,62.91
2019-03-27T09:46:36.790Z,61.76
2019-03-27T09:49:11.370Z,60.77
2019-03-27T09:51:47.768Z,60.22
2019-03-27T09:54:22.432Z,58.90
2019-03-27T09:56:57.371Z,58.67
2019-03-27T09:59:32.259Z,57.87
2019-03-27T10:02:06.855Z,57.91
2019-03-27T10:04:41.731Z,59.34
2019-03-27T10:07:16.147Z,59.56
2019-03-27T10:09:50.740Z,59.79
2019-03-27T10:12:25.696Z,60.16
2019-03-27T10:15:00.353Z,59.83
2019-03-27T10:17:34.830Z,60.92
2019-03-27T10:20:09.574Z,60.57
2019-03-27T10:22:45.864Z,59.62
2019-03-27T10:25:22.753Z,58.84
2019-03-27T10:27:57.675Z,57.37
2019-03-27T10:30:32.407Z,57.17
2019-03-27T10:33:07.079Z,58.09
2019-03-27T10:35:41.883Z,56.91
2019-03-27T10:38:16.482Z,56.74
2019-03-27T10:40:51.166Z,55.65
2019-03-27T10:43:25.634Z,55.42
2019-03-27T10:46:01.995Z,56.19
2019-03-27T10:48:51.443Z,56.13
2019-03-27T10:51:14.942Z,55.80
2019-03-27T10:53:51.303Z,56.06
2019-03-27T10:56:26.251Z,57.31
2019-03-27T10:59:00.785Z,57.78
2019-03-27T11:01:37.140Z,58.38
2019-03-27T11:04:13.074Z,58.88
2019-03-27T11:06:47.618Z,58.42
2019-03-27T11:09:22.343Z,58.34
2019-03-27T11:11:56.968Z,58.49
2019-03-27T11:14:38.113Z,58.51
2019-03-27T11:17:09.819Z,58.88
2019-03-27T11:19:45.977Z,59.21
2019-03-27T11:22:22.121Z,59.28
2019-03-27T11:24:58.179Z,58.12
2019-03-27T11:27:32.741Z,58.99
2019-03-27T11:30:08.546Z,58.80
2019-03-27T11:32:43.516Z,58.56
2019-03-27T11:35:18.456Z,59.38
2019-03-27T11:37:53.565Z,59.07
2019-03-27T11:40:28.090Z,58.33
2019-03-27T11:43:04.865Z,58.66
2019-03-27T11:45:41.333Z,57.16
2019-03-27T11:48:16.215Z,55.78
2019-03-27T11:50:50.848Z,56.08
2019-03-27T11:53:25.419Z,56.87
2019-03-27T11:56:03.239Z,54.33
2019-03-27T11:58:36.403Z,55.21
2019-03-27T12:01:11.403Z,54.80
2019-03-27T12:03:46.009Z,55.43
2019-03-27T12:06:22.032Z,56.65
2019-03-27T12:08:57.277Z,58.41
2019-03-27T12:11:32.103Z,57.67
2019-03-27T12:14:06.727Z,57.75
2019-03-27T12:16:41.311Z,57.78
2019-03-27T12:19:16.096Z,57.32
2019-03-27T12:21:51.119Z,57.36
2019-03-27T12:24:28.595Z,57.61
2019-03-27T12:27:05.070Z,57.23
2019-03-27T12:29:41.360Z,57.95
2019-03-27T12:32:16.303Z,56.70
2019-03-27T12:34:50.904Z,56.48
2019-03-27T12:37:25.690Z,56.27
2019-03-27T12:40:01.180Z,55.95
2019-03-27T12:42:38.392Z,54.69
2019-03-27T12:45:15.808Z,53.99
2019-03-27T12:47:50.405Z,53.25
2019-03-27T12:50:25.421Z,54.01
2019-03-27T12:53:01.436Z,54.23
2019-03-27T12:55:36.318Z,54.44
2019-03-27T12:58:12.685Z,54.00
2019-03-27T13:00:47.265Z,54.21
2019-03-27T13:03:22.027Z,53.42
2019-03-27T13:05:56.653Z,53.38
2019-03-27T13:08:32.961Z,54.35
2019-03-27T13:11:09.313Z,54.22
2019-03-27T13:13:44.733Z,53.12
2019-03-27T13:16:19.478Z,52.79
2019-03-27T13:18:56.032Z,52.63
2019-03-27T13:21:30.498Z,52.71
2019-03-27T13:24:05.312Z,52.32
2019-03-27T13:26:40.225Z,52.27
2019-03-27T13:29:15.272Z,52.10
2019-03-27T13:31:50.240Z,50.95
2019-03-27T13:34:26.452Z,50.95
2019-03-27T13:37:01.506Z,50.54
2019-03-27T13:39:37.655Z,50.05
2019-03-27T13:42:13.684Z,51.77
2019-03-27T13:44:48.404Z,51.86
2019-03-27T13:47:23.266Z,51.70
2019-03-27T13:49:59.796Z,51.52
2019-03-27T13:52:34.842Z,51.82
2019-03-27T13:55:10.066Z,51.02
2019-03-27T13:57:46.175Z,50.74
2019-03-27T14:00:21.529Z,49.99
2019-03-27T14:02:56.053Z,50.80
2019-03-27T14:05:32.496Z,50.79
2019-03-27T14:08:07.978Z,50.29
2019-03-27T14:10:44.525Z,50.82
2019-03-27T14:13:19.361Z,50.62
2019-03-27T14:15:54.045Z,50.53
2019-03-27T14:18:28.714Z,50.59
2019-03-27T14:21:03.311Z,50.00
2019-03-27T14:23:37.952Z,50.72
2019-03-27T14:26:14.061Z,51.16
2019-03-27T14:28:49.289Z,52.13
2019-03-27T14:31:23.957Z,52.55
2019-03-27T14:33:58.634Z,52.79
2019-03-27T14:36:34.844Z,52.86
2019-03-27T14:39:10.414Z,52.72
2019-03-27T14:41:46.800Z,52.31
2019-03-27T14:44:21.491Z,53.19
2019-03-27T14:46:58.248Z,52.66
2019-03-27T14:49:37.538Z,53.04
2019-03-27T14:52:10.764Z,52.66
2019-03-27T14:54:45.304Z,53.33
2019-03-27T14:57:19.842Z,53.73
2019-03-27T14:59:55.820Z,54.21
2019-03-27T15:02:30.727Z,54.44
2019-03-27T15:05:05.857Z,54.53
2019-03-27T15:07:46.818Z,55.51
2019-03-27T15:10:22.175Z,55.39
2019-03-27T15:12:56.973Z,55.87
2019-03-27T15:15:31.789Z,55.46
2019-03-27T15:18:06.949Z,55.86
2019-03-27T15:20:41.501Z,55.97
2019-03-27T15:23:16.178Z,56.27
2019-03-27T15:25:52.347Z,56.95
2019-03-27T15:28:28.064Z,56.94
2019-03-27T15:31:04.171Z,57.28
2019-03-27T15:33:40.579Z,57.08
2019-03-27T15:36:15.376Z,56.36
2019-03-27T15:38:49.972Z,57.29
2019-03-27T15:41:24.852Z,58.56
2019-03-27T15:44:00.025Z,59.90
2019-03-27T15:46:36.453Z,61.24
2019-03-27T15:49:11.047Z,59.63
2019-03-27T15:51:46.352Z,59.89
2019-03-27T15:54:20.995Z,59.74
2019-03-27T15:56:55.538Z,59.77
2019-03-27T15:59:30.117Z,60.01
2019-03-27T16:02:05.957Z,59.82
2019-03-27T16:04:42.115Z,58.68
2019-03-27T16:07:18.835Z,58.50
2019-03-27T16:09:55.174Z,58.48
2019-03-27T16:12:29.887Z,59.15
2019-03-27T16:15:04.758Z,58.85
2019-03-27T16:17:39.594Z,58.45
2019-03-27T16:20:15.777Z,58.41
2019-03-27T16:22:51.318Z,58.66
2019-03-27T16:25:26.107Z,59.82
2019-03-27T16:28:00.843Z,59.91
2019-03-27T16:30:35.510Z,59.77
2019-03-27T16:33:10.639Z,60.46
2019-03-27T16:35:45.151Z,60.37
2019-03-27T16:38:19.792Z,60.99
2019-03-27T16:40:55.836Z,60.96
2019-03-27T16:43:30.915Z,60.98
2019-03-27T16:46:06.960Z,61.55
2019-03-27T16:48:43.309Z,62.29
2019-03-27T16:51:18.336Z,62.95
2019-03-27T16:53:53.434Z,63.29
2019-03-27T16:56:28.988Z,63.31
2019-03-27T16:59:04.288Z,63.24
2019-03-27T17:01:39.006Z,63.37
2019-03-27T17:04:13.633Z,64.15
2019-03-27T17:06:50.045Z,64.33
2019-03-27T17:09:25.039Z,64.84
2019-03-27T17:11:59.561Z,65.51
2019-03-27T17:14:36.155Z,65.58
2019-03-27T17:17:11.060Z,65.74
2019-03-27T17:19:45.566Z,66.50
2019-03-27T17:22:20.279Z,66.42
2019-03-27T17:24:56.159Z,67.02
2019-03-27T17:27:30.972Z,67.20
2019-03-27T17:30:06.788Z,67.24
2019-03-27T17:32:41.653Z,67.52
2019-03-27T17:35:16.311Z,68.47
2019-03-27T17:37:51.816Z,68.85
2019-03-27T17:40:26.478Z,69.55
2019-03-27T17:43:03.261Z,69.57
2019-03-27T17:45:38.226Z,70.00
2019-03-27T17:48:15.049Z,71.26
2019-03-27T17:50:50.124Z,71.41
2019-03-27T17:53:31.614Z,71.53
2019-03-27T17:56:01.564Z,71.79
2019-03-27T17:58:36.431Z,72.06
2019-03-27T18:01:12.993Z,72.12
2019-03-27T18:03:48.185Z,72.22
2019-03-27T18:06:22.847Z,72.55
2019-03-27T18:08:58.344Z,73.57
2019-03-27T18:11:33.394Z,72.92
2019-03-27T18:14:07.987Z,73.50
2019-03-27T18:16:42.717Z,73.84
2019-03-27T18:19:17.652Z,74.03
2019-03-27T18:22:07.173Z,73.85
2019-03-27T18:24:30.677Z,72.98
2019-03-27T18:27:09.013Z,73.41
2019-03-27T18:29:43.489Z,73.20
2019-03-27T18:32:18.026Z,73.53
2019-03-27T18:34:54.815Z,73.45
2019-03-27T18:37:29.494Z,73.44
2019-03-27T18:40:04.806Z,73.44
2019-03-27T18:42:41.407Z,73.25
2019-03-27T18:45:16.584Z,72.76
2019-03-27T18:47:51.298Z,72.84
2019-03-27T18:50:26.011Z,73.01
2019-03-27T18:53:00.466Z,72.93
2019-03-27T18:55:37.722Z,72.91
2019-03-27T18:58:14.125Z,73.15
2019-03-27T19:00:48.871Z,73.10
2019-03-27T19:03:23.507Z,73.11
2019-03-27T19:05:58.567Z,73.75
2019-03-27T19:08:33.403Z,73.97
2019-03-27T19:11:10.409Z,74.55
2019-03-27T19:13:44.865Z,74.86
2019-03-27T19:16:19.858Z,74.10
2019-03-27T19:18:54.655Z,74.61
2019-03-27T19:21:31.922Z,74.71
2019-03-27T19:24:16.086Z,75.09
2019-03-27T19:26:48.268Z,74.84
2019-03-27T19:29:24.616Z,75.73
2019-03-27T19:32:00.389Z,76.44
2019-03-27T19:34:34.919Z,76.60
2019-03-27T19:37:09.887Z,78.16
2019-03-27T19:39:44.542Z,78.62
2019-03-27T19:42:20.848Z,78.98
2019-03-27T19:44:55.377Z,80.61
2019-03-27T19:47:30.348Z,82.14
2019-03-27T19:50:05.132Z,83.46
2019-03-27T19:52:45.556Z,84.00
2019-03-27T19:55:20.139Z,84.73
2019-03-27T19:57:54.714Z,85.80
2019-03-27T20:00:30.159Z,86.68
2019-03-27T20:03:05.693Z,87.60
2019-03-27T20:05:40.975Z,88.57
2019-03-27T20:08:17.395Z,89.20
2019-03-27T20:10:52.366Z,88.97
2019-03-27T20:13:29.107Z,89.46
2019-03-27T20:16:06.042Z,89.30
2019-03-27T20:18:42.058Z,89.89
2019-03-27T20:21:16.981Z,90.87
2019-03-27T20:23:51.730Z,91.29
2019-03-27T20:26:26.635Z,91.41
2019-03-27T20:29:01.276Z,92.42
2019-03-27T20:31:37.606Z,93.42
2019-03-27T20:34:14.213Z,93.89
2019-03-27T20:36:49.061Z,94.21
2019-03-27T20:39:27.156Z,94.57
2019-03-27T20:42:02.889Z,94.06
2019-03-27T20:44:39.276Z,94.70
2019-03-27T20:47:15.620Z,95.09
2019-03-27T20:49:50.775Z,95.55
2019-03-27T20:52:25.474Z,95.60
2019-03-27T20:55:02.747Z,95.78
2019-03-27T20:57:39.252Z,96.16
2019-03-27T21:00:16.405Z,95.49
2019-03-27T21:02:52.848Z,94.85
2019-03-27T21:05:29.567Z,94.50
2019-03-27T21:08:04.724Z,94.23
2019-03-27T21:10:41.941Z,94.54
2019-03-27T21:13:18.056Z,94.36
2019-03-27T21:15:54.399Z,94.09
2019-03-27T21:18:29.412Z,94.04
2019-03-27T21:21:04.308Z,94.27
2019-03-27T21:23:40.673Z,94.17
2019-03-27T21:26:18.594Z,94.50
2019-03-27T21:28:53.729Z,94.47
2019-03-27T21:31:29.123Z,94.53
2019-03-27T21:34:03.728Z,94.98
2019-03-27T21:36:38.943Z,95.00
2019-03-27T21:39:13.791Z,95.09
2019-03-27T21:41:48.496Z,95.15
2019-03-27T21:44:23.242Z,95.10
2019-03-27T21:46:57.682Z,95.40
2019-03-27T21:49:32.115Z,95.20
2019-03-27T21:52:06.898Z,95.54
2019-03-27T21:54:45.066Z,95.78
2019-03-27T21:57:21.052Z,95.92
2019-03-27T21:59:57.050Z,95.90
2019-03-27T22:02:33.050Z,95.84
2019-03-27T22:05:08.312Z,95.71
2019-03-27T22:07:42.989Z,95.77
2019-03-27T22:10:17.599Z,95.90
2019-03-27T22:12:52.187Z,96.25
2019-03-27T22:15:27.258Z,96.12
2019-03-27T22:18:01.741Z,96.06
2019-03-27T22:20:39.478Z,95.58
2019-03-27T22:23:12.729Z,95.78
2019-03-27T22:25:49.658Z,95.58
2019-03-27T22:28:26.085Z,95.48
2019-03-27T22:31:02.862Z,95.10
2019-03-27T22:33:37.542Z,94.98
2019-03-27T22:36:12.088Z,95.28
2019-03-27T22:38:48.511Z,95.66
2019-03-27T22:41:24.435Z,95.36
2019-03-27T22:43:59.389Z,94.85
2019-03-27T22:46:34.213Z,95.07
2019-03-27T22:49:10.833Z,94.92
2019-03-27T22:51:45.979Z,94.59
2019-03-27T22:54:20.554Z,93.71
2019-03-27T22:56:55.523Z,94.31
2019-03-27T22:59:30.202Z,94.25
2019-03-27T23:02:04.863Z,93.88
2019-03-27T23:04:39.454Z,94.45
2019-03-27T23:07:13.992Z,94.03
2019-03-27T23:09:51.669Z,93.71
2019-03-27T23:12:27.116Z,93.01
2019-03-27T23:15:03.470Z,93.19
2019-03-27T23:17:38.018Z,93.36
2019-03-27T23:20:14.342Z,93.45
2019-03-27T23:22:48.933Z,93.45
2019-03-27T23:25:23.486Z,93.66
2019-03-27T23:28:00.097Z,93.23
2019-03-27T23:30:34.724Z,93.69
2019-03-27T23:33:09.227Z,93.78
2019-03-27T23:35:44.252Z,93.49
2019-03-27T23:38:19.322Z,93.98
2019-03-27T23:40:53.971Z,93.61
2019-03-27T23:43:28.984Z,93.84
2019-03-27T23:46:05.183Z,94.21
2019-03-27T23:48:39.782Z,93.58
2019-03-27T23:51:14.499Z,93.10
2019-03-27T23:53:49.116Z,93.19
2019-03-27T23:56:25.655Z,93.32
2019-03-27T23:59:00.230Z,93.57
